Time;durP1;ratioP1;P1;durP2;ratioP2;P2;SDS_P1;SDS_P2;PMS_P1;PMS_P2;Temp;Humidity;BMP_temperature;BMP_pressure;BME280_temperature;BME280_humidity;BME280_pressure;Samples;Min_cycle;Max_cycle;Signal;HPM_P1;HPM_P2
2023/01/24 00:00:20;;;;;;;44.10;30.10;;;;;;;-128.00;-1.00;-1.00;105675;1252;1004949;-76
2023/01/24 00:03:11;;;;;;;47.70;31.00;;;;;;;-128.00;-1.00;-1.00;105452;1253;1055295;-75
2023/01/24 00:05:39;;;;;;;49.20;32.40;;;;;;;-128.00;-1.00;-1.00;105583;1253;1058466;-75
2023/01/24 00:08:06;;;;;;;47.90;31.20;;;;;;;-128.00;-1.00;-1.00;105698;1253;1003608;-75
2023/01/24 00:10:33;;;;;;;46.40;30.50;;;;;;;-128.00;-1.00;-1.00;105750;1253;1004411;-74
2023/01/24 00:13:00;;;;;;;48.90;32.90;;;;;;;-128.00;-1.00;-1.00;105720;1253;1004394;-74
2023/01/24 00:15:26;;;;;;;47.20;31.90;;;;;;;-128.00;-1.00;-1.00;105401;1254;1004761;-74
2023/01/24 00:17:53;;;;;;;43.80;30.50;;;;;;;-128.00;-1.00;-1.00;105356;1252;1004241;-74
2023/01/24 00:20:20;;;;;;;45.20;31.60;;;;;;;-128.00;-1.00;-1.00;105564;1253;1004593;-74
2023/01/24 00:22:47;;;;;;;47.10;31.10;;;;;;;-128.00;-1.00;-1.00;105721;1252;1004250;-75
2023/01/24 00:25:13;;;;;;;47.40;31.70;;;;;;;-128.00;-1.00;-1.00;105718;1252;1003729;-75
2023/01/24 00:27:40;;;;;;;48.50;32.30;;;;;;;-128.00;-1.00;-1.00;105434;1253;1004060;-74
2023/01/24 00:30:08;;;;;;;48.20;32.60;;;;;;;-128.00;-1.00;-1.00;105685;1253;1004024;-75
2023/01/24 00:32:35;;;;;;;49.30;33.90;;;;;;;-128.00;-1.00;-1.00;105701;1252;1004874;-75
2023/01/24 00:35:02;;;;;;;47.00;31.00;;;;;;;-128.00;-1.00;-1.00;105686;1252;1003854;-75
2023/01/24 00:37:29;;;;;;;48.10;32.20;;;;;;;-128.00;-1.00;-1.00;105721;1253;1003458;-75
2023/01/24 00:39:56;;;;;;;52.40;32.90;;;;;;;-128.00;-1.00;-1.00;105656;1251;1005057;-75
2023/01/24 00:42:22;;;;;;;48.30;32.20;;;;;;;-128.00;-1.00;-1.00;105619;1253;1004358;-75
2023/01/24 00:44:49;;;;;;;46.30;30.50;;;;;;;-128.00;-1.00;-1.00;105684;1252;1004639;-75
2023/01/24 00:47:16;;;;;;;43.20;28.20;;;;;;;-128.00;-1.00;-1.00;105718;1252;1003725;-75
2023/01/24 00:49:42;;;;;;;45.00;29.70;;;;;;;-128.00;-1.00;-1.00;105707;1252;1003969;-75
2023/01/24 00:52:09;;;;;;;46.70;31.10;;;;;;;-128.00;-1.00;-1.00;105589;1253;1004073;-75
2023/01/24 00:54:36;;;;;;;42.80;28.80;;;;;;;-128.00;-1.00;-1.00;105706;1252;1004539;-75
2023/01/24 00:57:04;;;;;;;43.60;28.70;;;;;;;-128.00;-1.00;-1.00;105709;1252;1003651;-75
2023/01/24 00:59:30;;;;;;;43.30;28.50;;;;;;;-128.00;-1.00;-1.00;105676;1253;1004454;-75
2023/01/24 01:01:57;;;;;;;47.20;28.60;;;;;;;-128.00;-1.00;-1.00;105598;1251;1004783;-75
2023/01/24 01:08:04;;;;;;;45.40;27.70;;;;;;;-128.00;-1.00;-1.00;105641;1252;1059185;-75
2023/01/24 01:10:31;;;;;;;50.70;30.80;;;;;;;-128.00;-1.00;-1.00;105685;1252;1005305;-75
2023/01/24 01:12:57;;;;;;;43.90;29.20;;;;;;;-128.00;-1.00;-1.00;105753;1252;1004958;-75
2023/01/24 01:15:24;;;;;;;42.80;27.30;;;;;;;-128.00;-1.00;-1.00;105589;1252;1004175;-74
2023/01/24 01:17:51;;;;;;;43.50;28.90;;;;;;;-128.00;-1.00;-1.00;105733;1253;1004831;-75
2023/01/24 01:20:17;;;;;;;44.70;28.10;;;;;;;-128.00;-1.00;-1.00;105702;1252;1003863;-74
2023/01/24 01:22:44;;;;;;;41.40;29.10;;;;;;;-128.00;-1.00;-1.00;105711;1252;1005964;-75
2023/01/24 01:25:11;;;;;;;40.60;26.90;;;;;;;-128.00;-1.00;-1.00;105715;1252;1004867;-75
2023/01/24 01:27:38;;;;;;;41.00;27.50;;;;;;;-128.00;-1.00;-1.00;105676;1252;1006525;-75
2023/01/24 01:30:05;;;;;;;42.80;27.70;;;;;;;-128.00;-1.00;-1.00;105705;1252;1004216;-75
2023/01/24 01:32:32;;;;;;;43.60;28.20;;;;;;;-128.00;-1.00;-1.00;105342;1253;1004707;-74
2023/01/24 01:34:58;;;;;;;44.20;29.50;;;;;;;-128.00;-1.00;-1.00;105661;1252;1004961;-74
2023/01/24 01:37:25;;;;;;;42.50;27.10;;;;;;;-128.00;-1.00;-1.00;105424;1251;1004646;-75
2023/01/24 01:39:51;;;;;;;38.30;26.80;;;;;;;-128.00;-1.00;-1.00;105663;1252;1003734;-75
2023/01/24 01:42:18;;;;;;;38.60;26.80;;;;;;;-128.00;-1.00;-1.00;105598;1251;1004019;-75
2023/01/24 01:44:50;;;;;;;40.70;27.90;;;;;;;-128.00;-1.00;-1.00;105690;1252;1004301;-74
2023/01/24 01:47:18;;;;;;;38.20;25.50;;;;;;;-128.00;-1.00;-1.00;105433;1251;1045528;-75
2023/01/24 01:50:14;;;;;;;39.60;27.10;;;;;;;-128.00;-1.00;-1.00;105654;1252;1045983;-75
2023/01/24 01:52:42;;;;;;;39.60;26.10;;;;;;;-128.00;-1.00;-1.00;105694;1252;1061585;-75
2023/01/24 01:55:16;;;;;;;42.40;26.10;;;;;;;-128.00;-1.00;-1.00;105700;1251;1004158;-75
2023/01/24 01:57:45;;;;;;;39.30;27.30;;;;;;;-128.00;-1.00;-1.00;105658;1252;1058630;-75
2023/01/24 02:00:18;;;;;;;41.10;27.30;;;;;;;-128.00;-1.00;-1.00;105698;1252;1006008;-75
2023/01/24 02:02:48;;;;;;;39.90;26.40;;;;;;;-128.00;-1.00;-1.00;105701;1253;1047429;-75
2023/01/24 02:05:20;;;;;;;40.90;25.40;;;;;;;-128.00;-1.00;-1.00;105717;1252;1060146;-74
2023/01/24 02:07:49;;;;;;;39.40;26.60;;;;;;;-128.00;-1.00;-1.00;105667;1253;1055352;-75
2023/01/24 02:10:19;;;;;;;38.80;25.20;;;;;;;-128.00;-1.00;-1.00;105705;1252;1059355;-74
2023/01/24 02:12:49;;;;;;;36.90;25.90;;;;;;;-128.00;-1.00;-1.00;105669;1252;1045994;-75
2023/01/24 02:18:06;;;;;;;46.40;29.80;;;;;;;-128.00;-1.00;-1.00;105724;1252;1062540;-74
2023/01/24 02:20:35;;;;;;;41.20;26.70;;;;;;;-128.00;-1.00;-1.00;104831;1251;1056326;-75
2023/01/24 02:23:30;;;;;;;43.30;29.30;;;;;;;-128.00;-1.00;-1.00;105711;1251;1059721;-75
2023/01/24 02:26:15;;;;;;;42.30;28.20;;;;;;;-128.00;-1.00;-1.00;105720;1251;1045274;-75
2023/01/24 02:29:05;;;;;;;38.30;25.90;;;;;;;-128.00;-1.00;-1.00;105691;1252;1047876;-75
2023/01/24 02:31:55;;;;;;;43.50;27.00;;;;;;;-128.00;-1.00;-1.00;105698;1252;1060567;-74
2023/01/24 02:34:22;;;;;;;43.40;27.40;;;;;;;-128.00;-1.00;-1.00;105737;1252;1056220;-73
2023/01/24 02:36:56;;;;;;;44.40;28.30;;;;;;;-128.00;-1.00;-1.00;105617;1252;1005570;-75
2023/01/24 02:40:12;;;;;;;43.10;27.50;;;;;;;-128.00;-1.00;-1.00;105661;1252;1045593;-74
2023/01/24 02:42:39;;;;;;;41.50;25.40;;;;;;;-128.00;-1.00;-1.00;104797;1267;1047452;-75
2023/01/24 02:45:09;;;;;;;40.70;26.20;;;;;;;-128.00;-1.00;-1.00;104820;1265;1004720;-73
2023/01/24 02:47:43;;;;;;;;;;;;;;;-128.00;-1.00;-1.00;104831;1266;1056125;-74
2023/01/24 02:50:10;;;;;;;36.80;23.80;;;;;;;-128.00;-1.00;-1.00;104678;1267;1059738;-74
2023/01/24 02:55:22;;;;;;;37.20;25.20;;;;;;;-128.00;-1.00;-1.00;104782;1266;1046713;-73
2023/01/24 02:58:07;;;;;;;35.80;22.80;;;;;;;-128.00;-1.00;-1.00;104817;1265;1003781;-74
2023/01/24 03:00:39;;;;;;;34.50;22.40;;;;;;;-128.00;-1.00;-1.00;104758;1265;1054714;-73
2023/01/24 03:03:08;;;;;;;32.50;21.20;;;;;;;-128.00;-1.00;-1.00;104651;1265;1059870;-74
2023/01/24 03:05:56;;;;;;;36.40;24.20;;;;;;;-128.00;-1.00;-1.00;104802;1266;1003660;-73
2023/01/24 03:08:28;;;;;;;32.30;21.50;;;;;;;-128.00;-1.00;-1.00;104808;1265;1047033;-73
2023/01/24 03:10:55;;;;;;;37.00;22.20;;;;;;;-128.00;-1.00;-1.00;104744;1267;1061532;-73
2023/01/24 03:35:27;;;;;;;33.40;21.60;;;;;;;-128.00;-1.00;-1.00;105600;1253;1046143;-74
2023/01/24 03:41:06;;;;;;;27.00;19.60;;;;;;;-128.00;-1.00;-1.00;105714;1252;1056335;-74
2023/01/24 03:43:33;;;;;;;29.60;21.20;;;;;;;-128.00;-1.00;-1.00;105695;1252;1059242;-74
2023/01/24 03:45:59;;;;;;;31.70;20.70;;;;;;;-128.00;-1.00;-1.00;105708;1252;1004542;-74
2023/01/24 03:48:33;;;;;;;31.80;21.80;;;;;;;-128.00;-1.00;-1.00;105707;1252;1004624;-74
2023/01/24 03:53:45;;;;;;;30.40;20.50;;;;;;;-128.00;-1.00;-1.00;105634;1252;1056083;-74
2023/01/24 03:56:12;;;;;;;29.60;20.20;;;;;;;-128.00;-1.00;-1.00;105688;1252;1004233;-74
2023/01/24 03:58:39;;;;;;;28.50;19.20;;;;;;;-128.00;-1.00;-1.00;105326;1252;1004951;-74
2023/01/24 04:01:06;;;;;;;26.70;19.30;;;;;;;-128.00;-1.00;-1.00;105699;1252;1004719;-74
2023/01/24 04:03:32;;;;;;;27.00;19.00;;;;;;;-128.00;-1.00;-1.00;105703;1252;1004091;-74
2023/01/24 04:05:59;;;;;;;23.80;16.80;;;;;;;-128.00;-1.00;-1.00;105682;1252;1004202;-74
2023/01/24 04:08:26;;;;;;;25.80;18.30;;;;;;;-128.00;-1.00;-1.00;105653;1252;1004463;-74
2023/01/24 04:10:56;;;;;;;25.50;17.70;;;;;;;-128.00;-1.00;-1.00;105705;1251;1004616;-74
2023/01/24 04:13:23;;;;;;;25.90;17.90;;;;;;;-128.00;-1.00;-1.00;105684;1252;1046605;-74
2023/01/24 04:15:50;;;;;;;26.00;18.20;;;;;;;-128.00;-1.00;-1.00;105579;1253;1004769;-74
2023/01/24 04:18:16;;;;;;;25.80;18.30;;;;;;;-128.00;-1.00;-1.00;105700;1252;1003672;-74
2023/01/24 04:20:43;;;;;;;25.10;17.60;;;;;;;-128.00;-1.00;-1.00;105572;1252;1003913;-74
2023/01/24 04:23:11;;;;;;;25.00;16.00;;;;;;;-128.00;-1.00;-1.00;105657;1251;1004262;-74
2023/01/24 04:25:38;;;;;;;22.90;16.90;;;;;;;-128.00;-1.00;-1.00;105659;1252;1004972;-74
2023/01/24 04:28:05;;;;;;;23.00;15.90;;;;;;;-128.00;-1.00;-1.00;105751;1252;1003383;-74
2023/01/24 04:30:31;;;;;;;23.30;16.00;;;;;;;-128.00;-1.00;-1.00;105700;1252;1004160;-74
2023/01/24 04:32:58;;;;;;;25.70;18.00;;;;;;;-128.00;-1.00;-1.00;105639;1252;1005113;-74
2023/01/24 04:35:28;;;;;;;24.80;17.00;;;;;;;-128.00;-1.00;-1.00;105643;1252;1003603;-74
2023/01/24 04:38:02;;;;;;;24.30;17.60;;;;;;;-128.00;-1.00;-1.00;105555;1254;1046295;-74
2023/01/24 04:40:28;;;;;;;23.80;17.40;;;;;;;-128.00;-1.00;-1.00;105701;1252;1060998;-74
2023/01/24 04:42:56;;;;;;;24.20;16.30;;;;;;;-128.00;-1.00;-1.00;105599;1251;1003622;-74
2023/01/24 04:45:24;;;;;;;24.90;17.40;;;;;;;-128.00;-1.00;-1.00;105648;1252;1004358;-73
2023/01/24 04:47:50;;;;;;;23.90;17.50;;;;;;;-128.00;-1.00;-1.00;105713;1252;1003601;-74
2023/01/24 04:50:17;;;;;;;26.60;18.30;;;;;;;-128.00;-1.00;-1.00;105689;1252;1004269;-74
2023/01/24 04:52:44;;;;;;;24.70;16.40;;;;;;;-128.00;-1.00;-1.00;105692;1252;1004572;-74
2023/01/24 04:55:10;;;;;;;26.50;17.30;;;;;;;-128.00;-1.00;-1.00;105711;1251;1004290;-74
2023/01/24 04:57:37;;;;;;;24.40;17.00;;;;;;;-128.00;-1.00;-1.00;105668;1251;1004591;-74
2023/01/24 05:00:05;;;;;;;26.30;18.90;;;;;;;-128.00;-1.00;-1.00;105675;1252;1004339;-74
2023/01/24 05:02:32;;;;;;;26.70;18.60;;;;;;;-128.00;-1.00;-1.00;105740;1252;1003753;-74
2023/01/24 05:04:59;;;;;;;26.90;18.40;;;;;;;-128.00;-1.00;-1.00;105698;1252;1004268;-73
2023/01/24 05:07:25;;;;;;;28.30;20.00;;;;;;;-128.00;-1.00;-1.00;105712;1252;1005000;-73
2023/01/24 05:09:52;;;;;;;30.30;20.10;;;;;;;-128.00;-1.00;-1.00;105657;1252;1003908;-73
2023/01/24 05:12:19;;;;;;;27.90;18.00;;;;;;;-128.00;-1.00;-1.00;105708;1252;1003392;-74
2023/01/24 05:14:45;;;;;;;29.70;19.90;;;;;;;-128.00;-1.00;-1.00;105684;1252;1004131;-73
2023/01/24 05:17:12;;;;;;;25.40;17.20;;;;;;;-128.00;-1.00;-1.00;105375;1253;1004555;-73
2023/01/24 05:19:38;;;;;;;31.30;19.50;;;;;;;-128.00;-1.00;-1.00;105685;1252;1004499;-73
2023/01/24 05:22:05;;;;;;;30.60;21.00;;;;;;;-128.00;-1.00;-1.00;105674;1251;1003812;-72
2023/01/24 05:24:31;;;;;;;29.30;19.30;;;;;;;-128.00;-1.00;-1.00;105692;1251;1006157;-74
2023/01/24 05:26:58;;;;;;;31.80;19.80;;;;;;;-128.00;-1.00;-1.00;105692;1251;1003351;-73
2023/01/24 05:29:24;;;;;;;28.30;18.90;;;;;;;-128.00;-1.00;-1.00;105719;1252;1005335;-73
2023/01/24 05:31:51;;;;;;;31.90;19.70;;;;;;;-128.00;-1.00;-1.00;105428;1251;1005927;-74
2023/01/24 05:34:18;;;;;;;28.60;19.20;;;;;;;-128.00;-1.00;-1.00;105593;1251;1004255;-74
2023/01/24 05:36:44;;;;;;;30.30;18.30;;;;;;;-128.00;-1.00;-1.00;105674;1252;1004818;-74
2023/01/24 05:39:11;;;;;;;32.20;19.30;;;;;;;-128.00;-1.00;-1.00;105662;1252;1003722;-74
2023/01/24 05:41:37;;;;;;;33.30;20.40;;;;;;;-128.00;-1.00;-1.00;105721;1252;1004039;-74
2023/01/24 05:44:04;;;;;;;30.60;19.80;;;;;;;-128.00;-1.00;-1.00;105707;1252;1003583;-74
2023/01/24 05:46:30;;;;;;;28.40;18.80;;;;;;;-128.00;-1.00;-1.00;105647;1252;1004860;-74
2023/01/24 05:48:57;;;;;;;30.00;19.90;;;;;;;-128.00;-1.00;-1.00;105681;1252;1004750;-74
2023/01/24 05:51:23;;;;;;;31.50;20.70;;;;;;;-128.00;-1.00;-1.00;105699;1252;1004179;-74
2023/01/24 05:53:50;;;;;;;32.00;19.40;;;;;;;-128.00;-1.00;-1.00;105692;1251;1004914;-73
2023/01/24 05:56:19;;;;;;;30.40;20.20;;;;;;;-128.00;-1.00;-1.00;105694;1252;1003930;-74
2023/01/24 05:58:47;;;;;;;34.50;20.20;;;;;;;-128.00;-1.00;-1.00;105684;1251;1003939;-74
2023/01/24 06:01:17;;;;;;;31.10;19.30;;;;;;;-128.00;-1.00;-1.00;105696;1251;1004701;-74
2023/01/24 06:03:46;;;;;;;27.00;19.60;;;;;;;-128.00;-1.00;-1.00;105697;1252;1047790;-74
2023/01/24 06:06:14;;;;;;;30.20;19.10;;;;;;;-128.00;-1.00;-1.00;105661;1252;1062543;-74
2023/01/24 06:08:42;;;;;;;30.50;19.20;;;;;;;-128.00;-1.00;-1.00;105698;1252;1004407;-74
2023/01/24 06:11:13;;;;;;;29.20;18.40;;;;;;;-128.00;-1.00;-1.00;105701;1252;1005355;-74
2023/01/24 06:13:40;;;;;;;28.50;17.60;;;;;;;-128.00;-1.00;-1.00;105694;1252;1046942;-74
2023/01/24 06:16:11;;;;;;;30.40;19.80;;;;;;;-128.00;-1.00;-1.00;105772;1252;1004648;-74
2023/01/24 06:18:38;;;;;;;24.30;16.80;;;;;;;-128.00;-1.00;-1.00;105744;1251;1061654;-74
2023/01/24 06:21:15;;;;;;;27.50;18.10;;;;;;;-128.00;-1.00;-1.00;105696;1252;1004486;-74
2023/01/24 06:23:42;;;;;;;26.50;18.30;;;;;;;-128.00;-1.00;-1.00;105586;1251;1059830;-74
2023/01/24 06:26:10;;;;;;;23.80;16.50;;;;;;;-128.00;-1.00;-1.00;105548;1251;1004935;-74
2023/01/24 06:28:38;;;;;;;22.40;15.10;;;;;;;-128.00;-1.00;-1.00;105695;1252;1004218;-74
2023/01/24 06:31:20;;;;;;;21.00;15.50;;;;;;;-128.00;-1.00;-1.00;105723;1252;1004772;-73
2023/01/24 06:33:55;;;;;;;21.90;15.60;;;;;;;-128.00;-1.00;-1.00;105716;1252;1055093;-74
2023/01/24 06:36:34;;;;;;;18.90;14.30;;;;;;;-128.00;-1.00;-1.00;105699;1251;1059427;-74
2023/01/24 06:39:00;;;;;;;17.80;13.50;;;;;;;-128.00;-1.00;-1.00;105669;1251;1047164;-74
2023/01/24 06:41:27;;;;;;;15.40;12.20;;;;;;;-128.00;-1.00;-1.00;105667;1253;1005268;-74
2023/01/24 06:43:54;;;;;;;17.30;13.30;;;;;;;-128.00;-1.00;-1.00;105570;1253;1004190;-74
2023/01/24 06:46:21;;;;;;;20.10;13.20;;;;;;;-128.00;-1.00;-1.00;105715;1252;1004109;-74
2023/01/24 06:48:47;;;;;;;20.80;14.10;;;;;;;-128.00;-1.00;-1.00;105715;1251;1004771;-75
2023/01/24 06:51:14;;;;;;;19.90;13.50;;;;;;;-128.00;-1.00;-1.00;105707;1252;1004676;-75
2023/01/24 06:53:41;;;;;;;19.30;14.30;;;;;;;-128.00;-1.00;-1.00;105745;1252;1005100;-74
2023/01/24 06:56:09;;;;;;;20.70;14.60;;;;;;;-128.00;-1.00;-1.00;105623;1253;1005714;-75
2023/01/24 06:58:37;;;;;;;21.30;15.00;;;;;;;-128.00;-1.00;-1.00;105607;1253;1055299;-75
2023/01/24 07:01:04;;;;;;;19.30;14.50;;;;;;;-128.00;-1.00;-1.00;105554;1253;1004690;-74
2023/01/24 07:03:30;;;;;;;18.50;13.40;;;;;;;-128.00;-1.00;-1.00;105458;1253;1005001;-74
2023/01/24 07:05:57;;;;;;;15.60;11.90;;;;;;;-128.00;-1.00;-1.00;105542;1253;1004320;-75
2023/01/24 07:08:23;;;;;;;17.90;14.10;;;;;;;-128.00;-1.00;-1.00;105699;1253;1004470;-74
2023/01/24 07:10:50;;;;;;;17.60;14.10;;;;;;;-128.00;-1.00;-1.00;105675;1253;1003728;-74
2023/01/24 07:13:17;;;;;;;19.70;13.80;;;;;;;-128.00;-1.00;-1.00;105684;1253;1004527;-75
2023/01/24 07:15:43;;;;;;;20.20;13.80;;;;;;;-128.00;-1.00;-1.00;105655;1253;1004941;-75
2023/01/24 07:18:12;;;;;;;17.10;13.40;;;;;;;-128.00;-1.00;-1.00;105688;1253;1004263;-74
2023/01/24 07:20:39;;;;;;;17.40;13.60;;;;;;;-128.00;-1.00;-1.00;105707;1253;1061824;-75
2023/01/24 07:23:19;;;;;;;17.70;13.20;;;;;;;-128.00;-1.00;-1.00;105679;1253;1004041;-74
2023/01/24 07:25:45;;;;;;;19.60;13.30;;;;;;;-128.00;-1.00;-1.00;105658;1252;1059050;-75
2023/01/24 07:28:14;;;;;;;17.50;12.60;;;;;;;-128.00;-1.00;-1.00;105525;1253;1045184;-75
2023/01/24 07:30:41;;;;;;;18.80;14.30;;;;;;;-128.00;-1.00;-1.00;105673;1253;1004553;-75
2023/01/24 07:33:07;;;;;;;19.50;13.30;;;;;;;-128.00;-1.00;-1.00;105688;1253;1004208;-75
2023/01/24 07:35:34;;;;;;;22.90;15.00;;;;;;;-128.00;-1.00;-1.00;105690;1253;1004011;-75
2023/01/24 07:38:00;;;;;;;22.50;14.30;;;;;;;-128.00;-1.00;-1.00;105683;1253;1004256;-75
2023/01/24 07:40:27;;;;;;;22.90;15.50;;;;;;;-128.00;-1.00;-1.00;105674;1252;1005006;-75
2023/01/24 07:42:53;;;;;;;20.40;14.40;;;;;;;-128.00;-1.00;-1.00;105649;1253;1004318;-76
2023/01/24 07:45:20;;;;;;;22.60;15.60;;;;;;;-128.00;-1.00;-1.00;105683;1253;1003965;-74
2023/01/24 07:47:47;;;;;;;23.00;15.80;;;;;;;-128.00;-1.00;-1.00;105713;1253;1007300;-75
2023/01/24 07:50:13;;;;;;;24.20;15.70;;;;;;;-128.00;-1.00;-1.00;105619;1253;1003681;-74
2023/01/24 07:52:40;;;;;;;22.80;16.60;;;;;;;-128.00;-1.00;-1.00;105675;1253;1004881;-75
2023/01/24 07:55:08;;;;;;;25.80;16.50;;;;;;;-128.00;-1.00;-1.00;105698;1251;1005599;-74
2023/01/24 07:57:35;;;;;;;25.80;15.40;;;;;;;-128.00;-1.00;-1.00;105689;1253;1061782;-74
2023/01/24 08:00:03;;;;;;;27.30;16.50;;;;;;;-128.00;-1.00;-1.00;105713;1252;1004172;-75
2023/01/24 08:02:31;;;;;;;25.30;15.00;;;;;;;-128.00;-1.00;-1.00;104524;1252;1375336;-75
2023/01/24 08:04:58;;;;;;;27.60;14.50;;;;;;;-128.00;-1.00;-1.00;105707;1251;1004564;-74
2023/01/24 08:07:24;;;;;;;24.20;14.50;;;;;;;-128.00;-1.00;-1.00;105733;1251;1004812;-74
2023/01/24 08:09:51;;;;;;;25.20;15.40;;;;;;;-128.00;-1.00;-1.00;105737;1251;1004970;-75
2023/01/24 08:12:17;;;;;;;24.20;16.30;;;;;;;-128.00;-1.00;-1.00;105746;1253;1004263;-75
2023/01/24 08:14:44;;;;;;;25.80;15.70;;;;;;;-128.00;-1.00;-1.00;105704;1252;1003918;-75
2023/01/24 08:17:11;;;;;;;25.00;14.30;;;;;;;-128.00;-1.00;-1.00;105677;1252;1003901;-75
2023/01/24 08:19:39;;;;;;;23.10;15.70;;;;;;;-128.00;-1.00;-1.00;105632;1251;1004116;-74
2023/01/24 08:22:06;;;;;;;21.10;13.40;;;;;;;-128.00;-1.00;-1.00;105499;1253;1003333;-74
2023/01/24 08:24:32;;;;;;;22.20;14.90;;;;;;;-128.00;-1.00;-1.00;105759;1252;1004952;-76
2023/01/24 08:27:00;;;;;;;24.60;16.60;;;;;;;-128.00;-1.00;-1.00;105596;1251;1004184;-75
2023/01/24 08:29:28;;;;;;;27.90;17.60;;;;;;;-128.00;-1.00;-1.00;105676;1253;1004744;-75
2023/01/24 08:31:55;;;;;;;29.70;18.40;;;;;;;-128.00;-1.00;-1.00;105719;1252;1005955;-75
2023/01/24 08:34:21;;;;;;;32.40;19.90;;;;;;;-128.00;-1.00;-1.00;105765;1252;1004046;-75
2023/01/24 08:36:48;;;;;;;28.60;18.70;;;;;;;-128.00;-1.00;-1.00;105701;1252;1006445;-75
2023/01/24 08:39:14;;;;;;;29.40;19.00;;;;;;;-128.00;-1.00;-1.00;105714;1252;1005412;-74
2023/01/24 08:41:43;;;;;;;31.30;17.50;;;;;;;-128.00;-1.00;-1.00;105422;1252;1005139;-74
2023/01/24 08:44:10;;;;;;;29.40;20.20;;;;;;;-128.00;-1.00;-1.00;105466;1253;1046643;-75
2023/01/24 08:46:36;;;;;;;31.50;20.10;;;;;;;-128.00;-1.00;-1.00;105718;1253;1004864;-75
2023/01/24 08:49:03;;;;;;;26.60;17.60;;;;;;;-128.00;-1.00;-1.00;105756;1253;1004418;-75
2023/01/24 08:51:31;;;;;;;21.50;15.50;;;;;;;-128.00;-1.00;-1.00;105755;1253;1004169;-75
2023/01/24 08:54:01;;;;;;;22.40;16.30;;;;;;;-128.00;-1.00;-1.00;105729;1253;1003810;-74
2023/01/24 08:56:27;;;;;;;24.40;16.70;;;;;;;-128.00;-1.00;-1.00;105404;1253;1046211;-75
2023/01/24 08:58:56;;;;;;;22.40;16.50;;;;;;;-128.00;-1.00;-1.00;105572;1253;1004007;-75
2023/01/24 09:01:25;;;;;;;24.20;14.60;;;;;;;-128.00;-1.00;-1.00;105731;1253;1055102;-74
2023/01/24 09:03:54;;;;;;;21.60;14.80;;;;;;;-128.00;-1.00;-1.00;105725;1251;1058958;-74
2023/01/24 09:06:21;;;;;;;23.10;15.10;;;;;;;-128.00;-1.00;-1.00;105729;1252;1044862;-74
2023/01/24 09:08:52;;;;;;;26.80;15.70;;;;;;;-128.00;-1.00;-1.00;105752;1252;1004150;-74
2023/01/24 09:11:19;;;;;;;22.40;15.30;;;;;;;-128.00;-1.00;-1.00;105736;1252;1061429;-75
2023/01/24 09:13:45;;;;;;;22.80;14.00;;;;;;;-128.00;-1.00;-1.00;105730;1253;1004657;-74
2023/01/24 09:16:12;;;;;;;21.50;14.50;;;;;;;-128.00;-1.00;-1.00;105734;1252;1004104;-74
2023/01/24 09:18:38;;;;;;;20.20;13.70;;;;;;;-128.00;-1.00;-1.00;105722;1252;1005432;-74
2023/01/24 09:21:05;;;;;;;19.10;13.50;;;;;;;-128.00;-1.00;-1.00;105775;1253;1003929;-74
2023/01/24 09:23:32;;;;;;;21.90;14.50;;;;;;;-128.00;-1.00;-1.00;105778;1251;1004283;-74
2023/01/24 09:25:59;;;;;;;20.90;15.10;;;;;;;-128.00;-1.00;-1.00;105726;1252;1003826;-74
2023/01/24 09:28:25;;;;;;;20.90;15.30;;;;;;;-128.00;-1.00;-1.00;105693;1253;1004311;-74
2023/01/24 09:30:52;;;;;;;25.00;16.60;;;;;;;-128.00;-1.00;-1.00;105739;1252;1004951;-74
2023/01/24 09:33:19;;;;;;;24.10;16.90;;;;;;;-128.00;-1.00;-1.00;105773;1253;1003720;-74
2023/01/24 09:35:58;;;;;;;22.00;15.00;;;;;;;-128.00;-1.00;-1.00;105609;1252;1003847;-74
2023/01/24 09:38:29;;;;;;;23.30;15.90;;;;;;;-128.00;-1.00;-1.00;105741;1252;1056232;-74
2023/01/24 09:41:16;;;;;;;20.40;14.80;;;;;;;-128.00;-1.00;-1.00;105759;1252;1059919;-75
2023/01/24 09:43:51;;;;;;;21.10;14.80;;;;;;;-128.00;-1.00;-1.00;105550;1252;1046332;-75
2023/01/24 09:46:45;;;;;;;19.00;13.10;;;;;;;-128.00;-1.00;-1.00;105762;1252;1047320;-75
2023/01/24 09:49:36;;;;;;;19.20;14.70;;;;;;;-128.00;-1.00;-1.00;105686;1251;1060759;-74
2023/01/24 09:52:06;;;;;;;20.30;14.70;;;;;;;-128.00;-1.00;-1.00;105702;1253;1055436;-75
2023/01/24 09:55:00;;;;;;;19.30;13.10;;;;;;;-128.00;-1.00;-1.00;105355;1253;1058908;-74
2023/01/24 09:57:49;;;;;;;19.00;13.90;;;;;;;-128.00;-1.00;-1.00;105639;1253;1046214;-74
2023/01/24 10:00:30;;;;;;;16.30;12.50;;;;;;;-128.00;-1.00;-1.00;105723;1252;1047207;-74
2023/01/24 10:02:58;;;;;;;17.40;13.10;;;;;;;-128.00;-1.00;-1.00;105704;1253;1061253;-74
2023/01/24 10:05:31;;;;;;;20.30;14.60;;;;;;;-128.00;-1.00;-1.00;105711;1253;1055847;-74
2023/01/24 10:08:22;;;;;;;18.10;12.80;;;;;;;-128.00;-1.00;-1.00;105685;1253;1058944;-74
2023/01/24 10:10:59;;;;;;;20.00;13.40;;;;;;;-128.00;-1.00;-1.00;105350;1253;1045671;-75
2023/01/24 10:13:56;;;;;;;22.90;14.90;;;;;;;-128.00;-1.00;-1.00;105669;1253;1046545;-75
2023/01/24 10:16:31;;;;;;;22.30;15.90;;;;;;;-128.00;-1.00;-1.00;105672;1252;1062037;-75
2023/01/24 10:19:07;;;;;;;26.00;19.60;;;;;;;-128.00;-1.00;-1.00;105722;1252;1057129;-75
2023/01/24 10:21:51;;;;;;;28.40;19.70;;;;;;;-128.00;-1.00;-1.00;105633;1253;1060203;-75
2023/01/24 10:24:22;;;;;;;28.80;19.20;;;;;;;-128.00;-1.00;-1.00;105674;1253;1046219;-74
2023/01/24 10:26:51;;;;;;;29.40;21.40;;;;;;;-128.00;-1.00;-1.00;105641;1253;1046272;-74
2023/01/24 10:29:29;;;;;;;27.60;19.10;;;;;;;-128.00;-1.00;-1.00;105713;1253;1061155;-75
2023/01/24 10:32:03;;;;;;;30.00;21.10;;;;;;;-128.00;-1.00;-1.00;105659;1253;1055413;-75
2023/01/24 10:34:39;;;;;;;28.90;20.00;;;;;;;-128.00;-1.00;-1.00;105603;1253;1059802;-75
2023/01/24 10:37:08;;;;;;;27.60;19.80;;;;;;;-128.00;-1.00;-1.00;105721;1254;1045402;-75
2023/01/24 10:39:38;;;;;;;27.10;19.10;;;;;;;-128.00;-1.00;-1.00;105696;1253;1046233;-74
2023/01/24 10:42:26;;;;;;;24.70;17.70;;;;;;;-128.00;-1.00;-1.00;105673;1253;1004210;-74
2023/01/24 10:45:00;;;;;;;23.40;18.60;;;;;;;-128.00;-1.00;-1.00;105662;1253;1056319;-74
2023/01/24 10:47:50;;;;;;;23.20;18.20;;;;;;;-128.00;-1.00;-1.00;105593;1253;1061872;-75
2023/01/24 10:50:18;;;;;;;24.70;18.00;;;;;;;-128.00;-1.00;-1.00;105674;1253;1045093;-75
2023/01/24 10:52:49;;;;;;;24.60;19.80;;;;;;;-128.00;-1.00;-1.00;105689;1253;1048310;-75
2023/01/24 10:55:36;;;;;;;24.70;17.00;;;;;;;-128.00;-1.00;-1.00;105759;1252;1061460;-74
2023/01/24 10:58:26;;;;;;;24.20;17.70;;;;;;;-128.00;-1.00;-1.00;105477;1252;1055238;-75
2023/01/24 11:00:58;;;;;;;22.90;16.60;;;;;;;-128.00;-1.00;-1.00;105769;1252;1058201;-74
2023/01/24 11:03:32;;;;;;;23.10;17.30;;;;;;;-128.00;-1.00;-1.00;105576;1252;1045571;-75
2023/01/24 11:06:02;;;;;;;24.80;19.40;;;;;;;-128.00;-1.00;-1.00;105754;1252;1046323;-75
2023/01/24 11:08:33;;;;;;;;;;;;;;;-128.00;-1.00;-1.00;105494;1253;1062229;-75
2023/01/24 11:11:01;;;;;;;24.10;18.50;;;;;;;-128.00;-1.00;-1.00;105753;1253;1055753;-75
2023/01/24 11:13:30;;;;;;;24.40;16.70;;;;;;;-128.00;-1.00;-1.00;105616;1252;1005128;-74
2023/01/24 11:16:21;;;;;;;26.80;18.70;;;;;;;-128.00;-1.00;-1.00;105741;1252;1046083;-74
2023/01/24 11:19:23;;;;;;;24.80;17.60;;;;;;;-128.00;-1.00;-1.00;105590;1253;1046334;-75
2023/01/24 11:22:19;;;;;;;25.80;19.30;;;;;;;-128.00;-1.00;-1.00;105488;1253;1062724;-75
2023/01/24 11:25:03;;;;;;;20.30;15.40;;;;;;;-128.00;-1.00;-1.00;105471;1252;1055588;-75
2023/01/24 11:27:49;;;;;;;26.70;18.50;;;;;;;-128.00;-1.00;-1.00;105469;1253;1059695;-75
2023/01/24 11:30:33;;;;;;;26.70;18.70;;;;;;;-128.00;-1.00;-1.00;105695;1253;1044826;-75
2023/01/24 11:33:07;;;;;;;20.70;15.80;;;;;;;-128.00;-1.00;-1.00;105470;1251;1046502;-76
2023/01/24 11:35:44;;;;;;;23.70;16.90;;;;;;;-128.00;-1.00;-1.00;105715;1253;1062124;-75
2023/01/24 11:38:27;;;;;;;21.10;15.60;;;;;;;-128.00;-1.00;-1.00;105790;1251;1056784;-75
2023/01/24 11:41:26;;;;;;;20.80;16.20;;;;;;;-128.00;-1.00;-1.00;105621;1253;1060022;-75
2023/01/24 11:44:23;;;;;;;21.00;16.20;;;;;;;-128.00;-1.00;-1.00;105729;1252;1045322;-75
2023/01/24 11:46:59;;;;;;;23.30;16.40;;;;;;;-128.00;-1.00;-1.00;105770;1252;1046113;-74
2023/01/24 11:49:34;;;;;;;20.70;16.00;;;;;;;-128.00;-1.00;-1.00;105555;1251;1061560;-75
2023/01/24 11:52:13;;;;;;;22.00;16.50;;;;;;;-128.00;-1.00;-1.00;105723;1254;1057051;-75
2023/01/24 11:54:49;;;;;;;20.70;15.00;;;;;;;-128.00;-1.00;-1.00;105765;1253;1058321;-75